Time;durP1;ratioP1;P1;durP2;ratioP2;P2;SDS_P1;SDS_P2;PMS_P1;PMS_P2;Temp;Humidity;BMP_temperature;BMP_pressure;BME280_temperature;BME280_humidity;BME280_pressure;Samples;Min_cycle;Max_cycle;Signal;HPM_P1;HPM_P2
2024/03/21 00:00:24;;;;;;;55.40;24.13;;;3.20;99.90;;;;;;5078632;28;20196;-75
2024/03/21 00:03:10;;;;;;;64.83;27.07;;;3.20;99.90;;;;;;5078383;28;20708;-75
2024/03/21 00:05:57;;;;;;;56.83;25.83;;;3.30;99.90;;;;;;5079152;28;20197;-76
2024/03/21 00:08:44;;;;;;;60.83;25.73;;;3.30;99.90;;;;;;5078639;28;20190;-75
2024/03/21 00:11:30;;;;;;;56.07;25.83;;;3.20;99.90;;;;;;5078582;28;20202;-77
2024/03/21 00:14:17;;;;;;;61.07;26.17;;;3.20;99.90;;;;;;5078999;28;20277;-76
2024/03/21 00:17:03;;;;;;;54.37;26.17;;;3.20;99.90;;;;;;5078469;28;20674;-76
2024/03/21 00:19:49;;;;;;;56.77;25.67;;;3.20;99.90;;;;;;5052490;28;20216;-76
2024/03/21 00:22:40;;;;;;;58.90;26.70;;;3.20;99.90;;;;;;5078127;28;20212;-76
2024/03/21 00:25:26;;;;;;;59.60;26.73;;;3.20;99.90;;;;;;5078716;28;20190;-76
2024/03/21 00:28:15;;;;;;;55.80;25.17;;;3.20;99.90;;;;;;5078635;28;20671;-76
2024/03/21 00:31:02;;;;;;;56.90;26.53;;;3.10;99.90;;;;;;5065893;28;20591;-76
2024/03/21 00:33:49;;;;;;;60.87;26.77;;;3.00;99.90;;;;;;5077805;28;20262;-76
2024/03/21 00:36:36;;;;;;;54.60;25.87;;;2.90;99.90;;;;;;5078474;28;20237;-76
2024/03/21 00:39:23;;;;;;;57.70;25.87;;;2.90;99.90;;;;;;5079648;28;20703;-76
2024/03/21 00:42:10;;;;;;;56.70;24.97;;;2.90;99.90;;;;;;5079050;28;20197;-76
2024/03/21 00:44:57;;;;;;;57.60;26.00;;;2.90;99.90;;;;;;5078957;28;20653;-76
2024/03/21 00:47:43;;;;;;;53.43;25.03;;;2.80;99.90;;;;;;5079071;28;20234;-75
2024/03/21 00:50:30;;;;;;;58.67;25.40;;;2.80;99.90;;;;;;5077850;28;20214;-75
2024/03/21 00:53:16;;;;;;;57.60;25.40;;;2.80;99.90;;;;;;5080275;28;20564;-75
2024/03/21 00:56:04;;;;;;;58.73;26.03;;;2.80;99.90;;;;;;5066083;28;20197;-75
2024/03/21 00:58:50;;;;;;;56.30;26.10;;;2.80;99.90;;;;;;5078738;28;20567;-75
2024/03/21 01:01:36;;;;;;;59.80;26.63;;;2.80;99.90;;;;;;5077980;28;20672;-75
2024/03/21 01:04:23;;;;;;;64.67;27.53;;;2.70;99.90;;;;;;5078431;28;20221;-75
2024/03/21 01:07:09;;;;;;;63.87;27.43;;;2.70;99.90;;;;;;5079159;28;20193;-75
2024/03/21 01:09:56;;;;;;;56.17;26.67;;;2.70;99.90;;;;;;5078789;28;20227;-75
2024/03/21 01:12:44;;;;;;;63.97;27.53;;;2.70;99.90;;;;;;5064351;28;20663;-75
2024/03/21 01:15:31;;;;;;;62.10;27.07;;;2.70;99.90;;;;;;5077775;28;20690;-75
2024/03/21 01:18:17;;;;;;;57.87;26.77;;;2.70;99.90;;;;;;5077812;28;20246;-75
2024/03/21 01:21:05;;;;;;;56.13;27.40;;;2.60;99.90;;;;;;5064858;28;20190;-76
2024/03/21 01:23:53;;;;;;;60.37;27.37;;;2.60;99.90;;;;;;5078734;28;20221;-76
2024/03/21 01:26:39;;;;;;;58.83;26.43;;;2.50;99.90;;;;;;5063852;28;20200;-75
2024/03/21 01:29:26;;;;;;;59.63;27.63;;;2.50;99.90;;;;;;5064542;28;20185;-75
2024/03/21 01:32:12;;;;;;;57.77;26.53;;;2.50;99.90;;;;;;5078139;28;20571;-76
2024/03/21 01:34:58;;;;;;;65.87;27.37;;;2.60;99.90;;;;;;5076614;28;20221;-75
2024/03/21 01:37:46;;;;;;;59.93;26.87;;;2.60;99.90;;;;;;5078068;28;20242;-76
2024/03/21 01:40:33;;;;;;;60.60;27.73;;;2.50;99.90;;;;;;5077867;28;20222;-76
2024/03/21 01:43:22;;;;;;;59.10;27.90;;;2.60;99.90;;;;;;5078323;28;20220;-76
2024/03/21 01:46:20;;;;;;;67.50;28.67;;;2.50;99.90;;;;;;5064482;28;20203;-75
2024/03/21 01:49:06;;;;;;;59.53;27.30;;;2.50;99.90;;;;;;5063517;28;20213;-74
2024/03/21 01:51:53;;;;;;;63.83;28.30;;;2.50;99.90;;;;;;5077964;28;20201;-74
2024/03/21 01:54:40;;;;;;;60.93;28.30;;;2.50;99.90;;;;;;5077874;28;20585;-75
2024/03/21 01:57:27;;;;;;;59.80;27.67;;;2.40;99.90;;;;;;5077528;28;20190;-75
2024/03/21 02:00:13;;;;;;;62.60;27.63;;;2.40;99.90;;;;;;5076751;28;20552;-75
2024/03/21 02:02:59;;;;;;;59.07;27.93;;;2.40;99.90;;;;;;5076756;28;20712;-75
2024/03/21 02:05:46;;;;;;;62.07;27.47;;;2.30;99.90;;;;;;5077795;28;20746;-75
2024/03/21 02:08:33;;;;;;;59.27;27.40;;;2.30;99.90;;;;;;5050850;28;20201;-75
2024/03/21 02:11:22;;;;;;;59.87;27.93;;;2.30;99.90;;;;;;5077815;28;20186;-75
2024/03/21 02:14:11;;;;;;;59.67;27.90;;;2.30;99.90;;;;;;5077244;28;20650;-75
2024/03/21 02:16:57;;;;;;;60.73;28.27;;;2.30;99.90;;;;;;5077195;28;20208;-75
2024/03/21 02:19:43;;;;;;;63.67;27.93;;;2.30;99.90;;;;;;5076542;28;20212;-75
2024/03/21 02:22:37;;;;;;;62.47;28.20;;;2.30;99.90;;;;;;5077101;28;20191;-75
2024/03/21 02:25:23;;;;;;;63.87;28.20;;;2.40;99.90;;;;;;5077081;28;20264;-75
2024/03/21 02:28:10;;;;;;;68.80;29.23;;;2.30;99.90;;;;;;5077687;28;20202;-75
2024/03/21 02:30:56;;;;;;;65.00;28.50;;;2.30;99.90;;;;;;5076579;28;20190;-75
2024/03/21 02:33:42;;;;;;;65.97;29.23;;;2.30;99.90;;;;;;5063641;28;20189;-75
2024/03/21 02:36:29;;;;;;;65.60;28.63;;;2.30;99.90;;;;;;5076842;28;20254;-75
2024/03/21 02:39:15;;;;;;;67.80;28.57;;;2.20;99.90;;;;;;5076860;28;20660;-75
2024/03/21 02:42:02;;;;;;;65.47;28.80;;;2.30;99.90;;;;;;5076842;28;20197;-75
2024/03/21 02:44:49;;;;;;;71.00;29.00;;;2.20;99.90;;;;;;5062892;28;20216;-75
2024/03/21 02:47:36;;;;;;;63.10;28.83;;;2.20;99.90;;;;;;5048970;28;20572;-75
2024/03/21 02:50:22;;;;;;;65.93;28.33;;;2.30;99.90;;;;;;5077337;28;20220;-75
2024/03/21 02:53:08;;;;;;;62.87;28.97;;;2.30;99.90;;;;;;5076707;28;20656;-75
2024/03/21 02:55:55;;;;;;;68.17;28.90;;;2.30;99.90;;;;;;5062923;28;20190;-75
2024/03/21 02:58:41;;;;;;;65.57;28.53;;;2.30;99.90;;;;;;5076831;28;20653;-76
2024/03/21 03:01:27;;;;;;;63.50;27.53;;;2.30;99.90;;;;;;5076738;28;20193;-76
2024/03/21 03:04:14;;;;;;;64.87;27.87;;;2.40;99.90;;;;;;5062665;28;20225;-75
2024/03/21 03:07:00;;;;;;;63.30;28.60;;;2.30;99.90;;;;;;5076500;28;20190;-75
2024/03/21 03:09:46;;;;;;;69.30;28.53;;;2.40;99.90;;;;;;5076624;28;20603;-75
2024/03/21 03:12:33;;;;;;;60.53;27.67;;;2.40;99.90;;;;;;5077228;28;20685;-75
2024/03/21 03:15:19;;;;;;;64.30;27.83;;;2.40;99.90;;;;;;5080763;28;20195;-76
2024/03/21 03:18:05;;;;;;;62.87;28.67;;;2.50;99.90;;;;;;5080707;28;20193;-76
2024/03/21 03:20:52;;;;;;;59.20;27.20;;;2.50;99.90;;;;;;5080601;28;20650;-75
2024/03/21 03:23:38;;;;;;;63.13;28.23;;;2.50;99.90;;;;;;5067288;28;20224;-75
2024/03/21 03:26:24;;;;;;;64.87;29.37;;;2.50;99.90;;;;;;5079769;28;20193;-76
2024/03/21 03:29:11;;;;;;;61.97;26.87;;;2.50;99.90;;;;;;5067178;28;20186;-75
2024/03/21 03:32:03;;;;;;;65.10;28.50;;;2.50;99.90;;;;;;5079653;28;20648;-75
2024/03/21 03:37:54;;;;;;;60.43;27.50;;;2.50;99.90;;;;;;5079810;28;20217;-76
2024/03/21 03:40:41;;;;;;;61.40;27.73;;;2.50;99.90;;;;;;5079515;28;20208;-76
2024/03/21 03:43:27;;;;;;;61.00;26.93;;;2.50;99.90;;;;;;5079072;28;20225;-76
2024/03/21 03:46:14;;;;;;;62.27;26.63;;;2.40;99.90;;;;;;5079468;28;20189;-76
2024/03/21 03:49:00;;;;;;;62.73;27.57;;;2.50;99.90;;;;;;5080128;28;20214;-76
2024/03/21 03:51:46;;;;;;;59.37;27.33;;;2.40;99.90;;;;;;5078988;28;20197;-76
2024/03/21 03:54:32;;;;;;;64.20;27.60;;;2.30;99.90;;;;;;5066151;28;20680;-76
2024/03/21 03:57:19;;;;;;;60.00;26.77;;;2.30;99.90;;;;;;5078731;28;20194;-75
2024/03/21 04:00:06;;;;;;;60.43;28.00;;;2.30;99.90;;;;;;5065310;28;20198;-75
2024/03/21 04:02:52;;;;;;;63.27;27.37;;;2.20;99.90;;;;;;5079771;28;20207;-75
2024/03/21 04:05:38;;;;;;;63.07;27.97;;;2.20;99.90;;;;;;5079019;28;20669;-75
2024/03/21 04:08:25;;;;;;;61.50;26.80;;;2.20;99.90;;;;;;5079237;28;20189;-75
2024/03/21 04:11:15;;;;;;;60.23;27.37;;;2.10;99.90;;;;;;5079008;28;20194;-75
2024/03/21 04:14:01;;;;;;;66.43;28.17;;;2.20;99.90;;;;;;5065399;28;20318;-75
2024/03/21 04:16:47;;;;;;;62.90;27.30;;;2.20;99.90;;;;;;5078353;28;20561;-75
2024/03/21 04:19:33;;;;;;;62.30;27.50;;;2.20;99.90;;;;;;5065641;28;20218;-76
2024/03/21 04:22:20;;;;;;;61.40;27.13;;;2.10;99.90;;;;;;5080207;28;20189;-75
2024/03/21 04:25:07;;;;;;;65.43;27.77;;;2.10;99.90;;;;;;5077391;28;20239;-75
2024/03/21 04:27:53;;;;;;;63.37;27.03;;;2.20;99.90;;;;;;5078418;28;20197;-75
2024/03/21 04:30:39;;;;;;;67.07;28.97;;;2.10;99.90;;;;;;5077969;28;20186;-75
2024/03/21 04:33:26;;;;;;;61.80;27.50;;;2.20;99.90;;;;;;5078443;28;20198;-76
2024/03/21 04:36:13;;;;;;;72.33;29.80;;;2.20;99.90;;;;;;5078515;28;20576;-76
2024/03/21 04:39:00;;;;;;;68.27;28.30;;;2.20;99.90;;;;;;5065332;28;20671;-76
2024/03/21 04:41:46;;;;;;;59.43;26.73;;;2.10;99.90;;;;;;5079343;28;20215;-76
2024/03/21 04:44:32;;;;;;;61.60;27.40;;;2.20;99.90;;;;;;5077631;28;20211;-75
2024/03/21 04:47:19;;;;;;;64.60;27.63;;;2.20;99.90;;;;;;5078300;28;20428;-75
2024/03/21 04:50:06;;;;;;;65.73;27.93;;;2.10;99.90;;;;;;5065009;28;20215;-75
2024/03/21 04:52:52;;;;;;;66.00;27.80;;;2.10;99.90;;;;;;5077657;28;20556;-76
2024/03/21 04:55:38;;;;;;;64.20;28.93;;;2.10;99.90;;;;;;5078263;28;20198;-76
2024/03/21 04:58:25;;;;;;;61.53;28.00;;;2.20;99.90;;;;;;5063976;28;20186;-76
2024/03/21 05:01:11;;;;;;;59.50;26.93;;;2.20;99.90;;;;;;5065067;28;20196;-76
2024/03/21 05:03:58;;;;;;;65.47;27.53;;;2.20;99.90;;;;;;5051564;28;20600;-76
2024/03/21 05:06:44;;;;;;;58.73;26.53;;;2.20;99.90;;;;;;5077769;28;20190;-76
2024/03/21 05:09:31;;;;;;;62.37;26.87;;;2.30;99.90;;;;;;5064755;28;20189;-76
2024/03/21 05:12:19;;;;;;;60.23;27.60;;;2.30;99.90;;;;;;5077478;28;20280;-76
2024/03/21 05:15:06;;;;;;;63.30;26.93;;;2.30;99.90;;;;;;5064618;28;20280;-76
2024/03/21 05:17:52;;;;;;;59.80;27.07;;;2.30;99.90;;;;;;5064541;28;20193;-76
2024/03/21 05:20:39;;;;;;;59.07;26.13;;;2.30;99.90;;;;;;5076992;28;20220;-76
2024/03/21 05:23:26;;;;;;;60.10;27.00;;;2.40;99.90;;;;;;5078243;28;20225;-76
2024/03/21 05:26:12;;;;;;;58.03;26.50;;;2.40;99.90;;;;;;5077212;28;20190;-76
2024/03/21 05:28:58;;;;;;;62.13;26.30;;;2.40;99.90;;;;;;5076915;28;20285;-75
2024/03/21 05:31:45;;;;;;;61.27;26.77;;;2.50;99.90;;;;;;5063824;28;20193;-75
2024/03/21 05:34:31;;;;;;;56.80;26.20;;;2.50;99.90;;;;;;5077586;28;20221;-75
2024/03/21 05:37:17;;;;;;;59.67;26.27;;;2.60;99.90;;;;;;5077193;28;20233;-76
2024/03/21 05:40:04;;;;;;;59.67;26.73;;;2.70;99.90;;;;;;5077700;28;20197;-76
2024/03/21 05:42:51;;;;;;;63.87;26.83;;;2.80;99.90;;;;;;5077834;28;20197;-76
2024/03/21 05:45:37;;;;;;;59.17;26.57;;;2.80;99.90;;;;;;5076863;28;20193;-75
2024/03/21 05:48:24;;;;;;;58.13;26.03;;;2.90;99.90;;;;;;5077804;28;20652;-75
2024/03/21 05:51:10;;;;;;;58.97;25.23;;;2.90;99.90;;;;;;5076628;28;20198;-75
2024/03/21 05:53:57;;;;;;;56.90;25.23;;;3.00;99.90;;;;;;5077080;28;20189;-75
2024/03/21 05:56:43;;;;;;;59.30;26.17;;;3.10;99.90;;;;;;5077052;28;20204;-75
2024/03/21 05:59:29;;;;;;;56.77;25.73;;;3.10;99.90;;;;;;5076893;28;20676;-75
2024/03/21 06:02:16;;;;;;;58.23;25.57;;;3.20;99.90;;;;;;5076269;28;20235;-75
2024/03/21 06:05:03;;;;;;;56.63;25.47;;;3.30;99.90;;;;;;5076490;28;20586;-76
2024/03/21 06:07:49;;;;;;;57.17;25.40;;;3.40;99.90;;;;;;5077431;28;20266;-76
2024/03/21 06:10:35;;;;;;;54.53;25.07;;;3.40;99.90;;;;;;5063527;28;20244;-75
2024/03/21 06:13:21;;;;;;;52.83;24.70;;;3.50;99.90;;;;;;5076647;28;20194;-76
2024/03/21 06:16:08;;;;;;;58.03;25.67;;;3.90;99.90;;;;;;5076409;28;20571;-75
2024/03/21 06:18:54;;;;;;;55.47;25.30;;;4.20;99.90;;;;;;5077721;28;20212;-76
2024/03/21 06:21:40;;;;;;;48.10;24.13;;;4.20;99.90;;;;;;5077161;28;20545;-76
2024/03/21 06:24:27;;;;;;;54.93;23.80;;;4.40;99.90;;;;;;5075873;28;20351;-76
2024/03/21 06:27:13;;;;;;;51.47;23.17;;;4.50;99.90;;;;;;5062633;28;20198;-76
2024/03/21 06:29:59;;;;;;;48.70;22.60;;;4.40;99.90;;;;;;5075838;28;20193;-77
2024/03/21 06:32:46;;;;;;;49.77;22.77;;;4.40;99.90;;;;;;5077566;28;20192;-77
2024/03/21 06:35:32;;;;;;;49.40;23.97;;;4.50;99.90;;;;;;5062858;28;20215;-73
2024/03/21 06:38:19;;;;;;;50.23;23.80;;;4.50;99.90;;;;;;5076096;28;20658;-74
2024/03/21 06:41:06;;;;;;;45.50;21.60;;;4.60;99.90;;;;;;5061906;28;20208;-75
2024/03/21 06:43:52;;;;;;;42.93;21.80;;;4.60;99.90;;;;;;5075778;28;20217;-74
2024/03/21 06:46:38;;;;;;;43.87;21.60;;;4.80;99.90;;;;;;5075551;28;20200;-74
2024/03/21 06:49:25;;;;;;;42.30;20.40;;;4.90;99.90;;;;;;5061727;28;20215;-75
2024/03/21 06:52:11;;;;;;;43.97;21.07;;;5.10;99.90;;;;;;5061968;28;20533;-74
2024/03/21 06:54:57;;;;;;;44.37;20.77;;;5.10;99.90;;;;;;5063518;28;20190;-74
2024/03/21 06:57:50;;;;;;;40.70;20.57;;;5.10;99.90;;;;;;5076122;28;20190;-75
2024/03/21 07:00:36;;;;;;;38.23;19.63;;;5.20;99.90;;;;;;5075030;28;20199;-74
2024/03/21 07:03:23;;;;;;;40.23;19.73;;;5.40;99.90;;;;;;5075859;28;20230;-75
2024/03/21 07:06:09;;;;;;;39.20;19.40;;;5.50;99.90;;;;;;5075495;28;20689;-75
2024/03/21 07:08:55;;;;;;;41.53;19.50;;;5.50;99.90;;;;;;5075308;28;20195;-74
2024/03/21 07:11:42;;;;;;;40.10;19.20;;;5.60;99.90;;;;;;5075968;28;20208;-74
2024/03/21 07:14:32;;;;;;;40.30;19.53;;;5.70;99.90;;;;;;5062573;28;20192;-73
2024/03/21 07:17:19;;;;;;;37.97;19.47;;;5.80;99.90;;;;;;5075654;28;20196;-75
2024/03/21 07:20:05;;;;;;;38.87;18.90;;;5.90;99.90;;;;;;5062060;28;20234;-76
2024/03/21 07:22:52;;;;;;;39.53;18.83;;;6.00;99.90;;;;;;5075836;28;20203;-76
2024/03/21 07:25:38;;;;;;;32.97;17.73;;;6.20;99.90;;;;;;5075727;28;20191;-75
2024/03/21 07:28:25;;;;;;;33.80;16.70;;;6.40;99.90;;;;;;5089335;28;20192;-76
2024/03/21 07:31:11;;;;;;;30.70;16.23;;;6.40;99.90;;;;;;5075371;28;20203;-76
2024/03/21 07:33:57;;;;;;;34.53;16.03;;;6.50;99.90;;;;;;5075003;28;20208;-74
2024/03/21 07:36:44;;;;;;;29.53;16.40;;;6.60;99.90;;;;;;5075634;28;20273;-74
2024/03/21 07:39:31;;;;;;;32.73;15.50;;;6.70;99.90;;;;;;5076180;28;20199;-75
2024/03/21 07:42:17;;;;;;;29.40;15.10;;;6.80;99.90;;;;;;5062157;28;20672;-74
2024/03/21 07:45:08;;;;;;;29.17;14.53;;;6.90;99.90;;;;;;5076144;28;20225;-74
2024/03/21 07:47:54;;;;;;;27.57;13.53;;;6.90;99.90;;;;;;5062411;28;20190;-73
2024/03/21 07:50:40;;;;;;;26.60;13.30;;;7.00;99.90;;;;;;5062163;28;20217;-75
2024/03/21 07:53:27;;;;;;;25.80;13.03;;;7.10;99.90;;;;;;5075216;28;20199;-75
2024/03/21 07:56:14;;;;;;;25.00;13.80;;;7.20;99.90;;;;;;5075562;28;20528;-75
2024/03/21 07:59:00;;;;;;;23.47;12.87;;;7.30;99.90;;;;;;5076837;28;20238;-75
2024/03/21 08:01:47;;;;;;;26.47;13.20;;;7.50;99.90;;;;;;5079198;28;20199;-75
2024/03/21 08:04:33;;;;;;;27.27;12.70;;;7.60;99.90;;;;;;5079227;28;20716;-74
2024/03/21 08:07:20;;;;;;;23.00;12.53;;;7.70;99.90;;;;;;5079245;28;20702;-74
2024/03/21 08:10:07;;;;;;;24.20;12.13;;;7.90;99.90;;;;;;5078916;28;20196;-75
2024/03/21 08:12:53;;;;;;;23.80;12.07;;;8.10;99.90;;;;;;5079118;28;20186;-74
2024/03/21 08:15:40;;;;;;;23.43;11.83;;;8.00;99.90;;;;;;5094309;28;20683;-75
2024/03/21 08:18:26;;;;;;;20.77;11.00;;;8.20;99.90;;;;;;5081089;28;20194;-75
2024/03/21 08:21:14;;;;;;;21.47;11.27;;;8.30;99.90;;;;;;5079173;28;20193;-75
2024/03/21 08:24:00;;;;;;;21.77;11.27;;;8.50;99.90;;;;;;5078930;28;20846;-76
2024/03/21 08:26:47;;;;;;;21.03;10.43;;;8.70;99.90;;;;;;5078187;28;20196;-76
2024/03/21 08:29:33;;;;;;;21.23;9.50;;;9.40;99.90;;;;;;5078296;28;20190;-76
2024/03/21 08:32:21;;;;;;;20.63;10.20;;;9.80;99.90;;;;;;5064889;28;20189;-74
2024/03/21 08:35:07;;;;;;;67.67;35.20;;;10.10;99.90;;;;;;5079158;28;20209;-82
2024/03/21 08:37:54;;;;;;;23.60;13.87;;;10.50;99.90;;;;;;5080021;28;20307;-74
2024/03/21 08:40:49;;;;;;;18.90;9.50;;;11.00;99.90;;;;;;5079194;28;20597;-73
2024/03/21 08:43:35;;;;;;;16.98;10.30;;;11.10;99.90;;;;;;5078097;28;20927;-76
2024/03/21 08:46:22;;;;;;;16.67;9.10;;;11.30;99.90;;;;;;5078903;28;20563;-76
2024/03/21 08:49:08;;;;;;;18.60;9.20;;;11.60;99.90;;;;;;5065502;28;20286;-75
2024/03/21 08:51:55;;;;;;;16.90;9.30;;;11.70;99.90;;;;;;5077117;28;20190;-75
2024/03/21 08:54:41;;;;;;;15.50;8.97;;;12.00;99.90;;;;;;5078933;28;20200;-75
2024/03/21 08:57:31;;;;;;;18.60;9.53;;;12.60;99.90;;;;;;5079368;28;20190;-76
2024/03/21 09:00:17;;;;;;;17.73;9.00;;;13.00;99.90;;;;;;5078594;28;20674;-75
2024/03/21 09:03:05;;;;;;;16.33;8.80;;;13.40;99.90;;;;;;5066396;28;20187;-75
2024/03/21 09:05:51;;;;;;;16.97;8.53;;;13.50;99.90;;;;;;5077498;28;20211;-75
2024/03/21 09:08:37;;;;;;;17.17;9.07;;;13.80;99.90;;;;;;5065400;28;20680;-76
2024/03/21 09:11:24;;;;;;;15.37;9.00;;;13.70;99.90;;;;;;5078312;28;20193;-76
2024/03/21 09:14:10;;;;;;;15.27;8.40;;;13.90;99.90;;;;;;5078103;28;20654;-76
2024/03/21 09:16:56;;;;;;;14.73;8.37;;;14.10;99.90;;;;;;5076990;28;20192;-75
2024/03/21 09:19:43;;;;;;;16.47;9.40;;;14.10;99.90;;;;;;5066156;28;20205;-76
2024/03/21 09:22:29;;;;;;;15.23;9.03;;;14.20;99.90;;;;;;5077749;28;20552;-76
2024/03/21 09:25:15;;;;;;;17.03;8.73;;;14.40;99.90;;;;;;5063098;28;20193;-76
2024/03/21 09:28:02;;;;;;;13.20;8.03;;;14.70;99.90;;;;;;5078228;28;20201;-76
2024/03/21 09:30:49;;;;;;;15.13;8.13;;;14.80;99.90;;;;;;5079274;28;20617;-82
2024/03/21 09:33:35;;;;;;;17.03;9.20;;;14.90;99.90;;;;;;5078881;28;20185;-75
2024/03/21 09:36:21;;;;;;;15.73;8.77;;;14.70;99.90;;;;;;5077915;28;20311;-73
2024/03/21 09:39:09;;;;;;;16.80;9.50;;;14.60;99.90;;;;;;5077408;28;20189;-74
2024/03/21 09:41:57;;;;;;;16.37;9.23;;;14.50;99.90;;;;;;5078490;28;20196;-73
2024/03/21 09:44:48;;;;;;;15.27;9.37;;;14.60;99.90;;;;;;5076854;28;20595;-74
2024/03/21 09:47:35;;;;;;;16.40;9.10;;;14.90;99.90;;;;;;5077916;28;20559;-74
2024/03/21 09:50:23;;;;;;;15.17;9.30;;;15.00;99.90;;;;;;5077094;28;20212;-74
2024/03/21 09:53:15;;;;;;;17.70;9.70;;;15.50;99.90;;;;;;5077578;28;20223;-74
2024/03/21 09:56:06;;;;;;;18.23;10.37;;;14.90;99.90;;;;;;5077682;28;20650;-74
2024/03/21 09:58:53;;;;;;;16.43;10.20;;;15.30;99.90;;;;;;5077561;28;20194;-74
2024/03/21 10:01:39;;;;;;;15.57;9.33;;;15.60;99.90;;;;;;5077610;28;20204;-74
2024/03/21 10:04:26;;;;;;;16.20;10.20;;;15.80;99.90;;;;;;5063550;28;20252;-74
2024/03/21 10:07:23;;;;;;;19.03;10.03;;;16.00;99.90;;;;;;5063630;28;20188;-74
2024/03/21 10:10:09;;;;;;;15.90;9.70;;;15.90;99.90;;;;;;5077366;28;20203;-74
2024/03/21 10:12:56;;;;;;;17.90;10.00;;;15.10;99.90;;;;;;5077344;28;20193;-74
2024/03/21 10:15:42;;;;;;;16.07;9.63;;;15.20;99.90;;;;;;5078422;28;20201;-74
2024/03/21 10:18:28;;;;;;;15.70;9.20;;;15.20;99.90;;;;;;5077129;28;20557;-74
2024/03/21 10:21:19;;;;;;;19.50;9.93;;;15.50;99.90;;;;;;5077094;28;20185;-74
2024/03/21 10:24:07;;;;;;;18.13;9.77;;;15.90;99.90;;;;;;5077112;28;20250;-74
2024/03/21 10:26:53;;;;;;;15.13;9.43;;;15.80;99.90;;;;;;5077596;28;20199;-74
2024/03/21 10:29:41;;;;;;;15.63;8.93;;;16.00;99.90;;;;;;5062755;28;20684;-74
2024/03/21 10:32:27;;;;;;;17.67;8.90;;;16.20;99.80;;;;;;5063175;28;20193;-74
2024/03/21 10:35:20;;;;;;;18.93;9.83;;;16.10;99.30;;;;;;5063441;28;20210;-74
2024/03/21 10:38:13;;;;;;;15.70;8.90;;;15.60;99.20;;;;;;5064139;28;20667;-74
2024/03/21 10:41:06;;;;;;;15.57;9.00;;;15.40;99.90;;;;;;5076287;28;20204;-74
2024/03/21 10:44:06;;;;;;;14.90;9.10;;;15.30;99.90;;;;;;5077360;28;20598;-74
2024/03/21 10:46:57;;;;;;;15.63;9.20;;;15.70;99.40;;;;;;5063290;28;20193;-74
2024/03/21 10:49:44;;;;;;;14.17;9.40;;;16.30;98.60;;;;;;5076153;28;20213;-74
2024/03/21 10:52:30;;;;;;;16.17;9.40;;;16.60;97.30;;;;;;5075649;28;20199;-74
2024/03/21 10:55:18;;;;;;;15.90;9.53;;;16.50;96.70;;;;;;5077052;28;20190;-74
2024/03/21 10:58:05;;;;;;;17.30;9.67;;;16.60;96.70;;;;;;5076478;28;20253;-74
2024/03/21 11:00:54;;;;;;;16.30;8.87;;;16.00;96.90;;;;;;5076562;28;20565;-74
2024/03/21 11:03:53;;;;;;;15.40;8.70;;;16.10;97.30;;;;;;5076287;28;20222;-75
2024/03/21 11:06:45;;;;;;;21.20;9.90;;;16.40;97.40;;;;;;5076505;28;20208;-75
2024/03/21 11:09:33;;;;;;;15.90;9.50;;;16.90;96.20;;;;;;5076585;28;20649;-76
2024/03/21 11:12:21;;;;;;;19.43;10.10;;;16.70;96.10;;;;;;5075561;28;20193;-76
2024/03/21 11:15:08;;;;;;;14.93;9.00;;;16.90;95.00;;;;;;5062575;28;20189;-76
2024/03/21 11:17:54;;;;;;;17.73;9.47;;;16.90;94.60;;;;;;5062381;28;20594;-76
2024/03/21 11:20:42;;;;;;;16.07;8.80;;;16.60;94.40;;;;;;5076372;28;20321;-76
2024/03/21 11:23:28;;;;;;;15.60;9.43;;;16.70;94.30;;;;;;5062273;28;20255;-76
2024/03/21 11:26:16;;;;;;;17.67;8.97;;;16.00;94.30;;;;;;5076383;28;20198;-76
2024/03/21 11:29:02;;;;;;;18.90;8.83;;;16.10;95.00;;;;;;5074424;28;20190;-76
2024/03/21 11:31:49;;;;;;;15.00;8.50;;;16.20;94.60;;;;;;5061804;28;20190;-75
2024/03/21 11:34:41;;;;;;;15.10;8.70;;;16.80;94.70;;;;;;5063502;28;20217;-76
2024/03/21 11:37:28;;;;;;;13.83;8.87;;;17.00;94.20;;;;;;5068028;28;20240;-76
2024/03/21 11:40:16;;;;;;;14.60;8.30;;;17.20;92.80;;;;;;5079364;28;20189;-77
2024/03/21 11:43:05;;;;;;;14.70;8.27;;;17.20;92.90;;;;;;5080652;28;20190;-76
2024/03/21 11:45:51;;;;;;;12.80;8.23;;;17.60;92.30;;;;;;5080925;28;20204;-77
2024/03/21 11:48:37;;;;;;;13.70;8.37;;;17.80;92.40;;;;;;5079951;28;20197;-76
2024/03/21 11:51:24;;;;;;;20.00;8.57;;;18.30;90.30;;;;;;5079935;28;20193;-76
2024/03/21 11:54:11;;;;;;;13.53;8.57;;;18.20;89.20;;;;;;5078800;28;20267;-76
2024/03/21 11:56:59;;;;;;;15.73;8.40;;;18.10;88.70;;;;;;5079291;28;20570;-76
2024/03/21 11:59:46;;;;;;;14.33;8.50;;;18.30;89.20;;;;;;5081105;28;20264;-76
2024/03/21 12:02:32;;;;;;;12.80;8.00;;;18.20;86.30;;;;;;5079105;28;20186;-76
2024/03/21 12:05:19;;;;;;;14.47;8.50;;;18.10;88.10;;;;;;5079564;28;20235;-77
2024/03/21 12:08:06;;;;;;;14.67;7.90;;;18.30;86.50;;;;;;5079536;28;20204;-76
2024/03/21 12:10:52;;;;;;;12.97;8.13;;;18.40;85.60;;;;;;5078613;28;20200;-76
2024/03/21 12:13:40;;;;;;;14.07;8.60;;;18.10;86.20;;;;;;5079486;28;20197;-77
2024/03/21 12:16:27;;;;;;;14.77;8.60;;;17.90;85.10;;;;;;5080468;28;20199;-79
2024/03/21 12:19:14;;;;;;;13.80;8.27;;;18.00;86.80;;;;;;5080015;28;20205;-80
2024/03/21 12:22:01;;;;;;;15.43;7.93;;;18.20;85.10;;;;;;5065513;28;20194;-80
2024/03/21 12:24:47;;;;;;;15.03;8.57;;;18.10;85.40;;;;;;5080259;28;20220;-80
2024/03/21 12:27:34;;;;;;;15.93;9.07;;;18.00;84.40;;;;;;5079335;28;20194;-80
2024/03/21 12:30:21;;;;;;;15.17;8.50;;;17.80;85.10;;;;;;5064831;28;20569;-80
2024/03/21 12:33:09;;;;;;;16.43;9.00;;;18.10;85.60;;;;;;5064654;28;20558;-80
2024/03/21 12:35:56;;;;;;;14.73;9.43;;;17.80;84.20;;;;;;5078931;28;20213;-80
2024/03/21 12:38:43;;;;;;;15.33;9.17;;;17.30;85.50;;;;;;5079542;28;20185;-80
2024/03/21 12:41:30;;;;;;;17.17;9.10;;;17.50;86.70;;;;;;5077285;28;20190;-81
2024/03/21 12:44:16;;;;;;;18.70;9.60;;;17.40;85.30;;;;;;5078411;28;20224;-80
2024/03/21 12:47:02;;;;;;;19.57;9.70;;;17.10;88.20;;;;;;5079016;28;20196;-86
2024/03/21 12:49:49;;;;;;;23.70;9.90;;;16.80;87.80;;;;;;5080411;28;20630;-84
2024/03/21 12:52:36;;;;;;;17.83;9.40;;;16.60;87.60;;;;;;5078841;28;20194;-89
2024/03/21 12:55:23;;;;;;;18.03;9.47;;;16.70;89.50;;;;;;5065385;28;20258;-88
2024/03/21 12:58:10;;;;;;;16.10;9.50;;;17.10;88.20;;;;;;5079849;28;20215;-84
2024/03/21 13:00:56;;;;;;;16.57;9.50;;;17.40;87.60;;;;;;5078852;28;20197;-84
2024/03/21 13:03:43;;;;;;;16.60;9.80;;;17.30;86.00;;;;;;5077375;28;20213;-84
2024/03/21 13:06:29;;;;;;;18.13;9.73;;;17.50;84.60;;;;;;5079160;28;20250;-84
2024/03/21 13:09:16;;;;;;;15.50;9.70;;;17.40;85.80;;;;;;5076649;28;20189;-85
2024/03/21 13:12:03;;;;;;;16.90;9.23;;;17.60;85.50;;;;;;5078577;28;20194;-82
2024/03/21 13:14:49;;;;;;;16.50;9.47;;;17.90;85.40;;;;;;5078290;28;20337;-85
2024/03/21 13:17:35;;;;;;;24.67;9.97;;;18.30;84.60;;;;;;5079096;28;20190;-86
2024/03/21 13:20:22;;;;;;;18.87;9.97;;;18.50;83.50;;;;;;5077876;28;20685;-84
2024/03/21 13:23:09;;;;;;;16.97;9.77;;;18.50;81.60;;;;;;5064536;28;20200;-87
2024/03/21 13:25:55;;;;;;;17.90;9.27;;;18.30;80.20;;;;;;5078361;28;20196;-85
2024/03/21 13:28:42;;;;;;;15.03;9.53;;;18.10;81.80;;;;;;5078244;28;20584;-87
2024/03/21 13:31:28;;;;;;;15.33;8.93;;;18.20;83.00;;;;;;5078421;28;20189;-88
2024/03/21 13:34:14;;;;;;;16.97;9.40;;;18.60;82.60;;;;;;5078039;28;20209;-87
2024/03/21 13:37:01;;;;;;;19.07;10.07;;;18.70;83.00;;;;;;5078102;28;20232;-86
2024/03/21 13:39:47;;;;;;;15.60;9.60;;;18.10;80.50;;;;;;5077743;28;20189;-84
2024/03/21 13:42:39;;;;;;;17.07;9.33;;;17.40;82.90;;;;;;5077397;28;20194;-85
2024/03/21 13:45:26;;;;;;;16.57;8.53;;;17.30;83.50;;;;;;5078088;28;20618;-85
2024/03/21 13:48:12;;;;;;;16.77;9.30;;;17.20;82.60;;;;;;5077335;28;20653;-85
2024/03/21 13:50:59;;;;;;;16.37;9.27;;;17.00;83.40;;;;;;5078385;28;20190;-85
2024/03/21 13:53:45;;;;;;;16.80;9.77;;;16.90;83.70;;;;;;5078330;28;20193;-85
2024/03/21 13:56:32;;;;;;;14.00;9.07;;;16.80;85.10;;;;;;5077470;28;20242;-83
2024/03/21 13:59:18;;;;;;;19.07;10.00;;;16.80;85.70;;;;;;5080525;28;20571;-86
2024/03/21 14:02:04;;;;;;;15.27;9.63;;;16.30;85.90;;;;;;5077042;28;20223;-85
2024/03/21 14:04:51;;;;;;;18.07;9.00;;;15.90;86.80;;;;;;5076691;28;20222;-83
2024/03/21 14:07:40;;;;;;;17.93;9.20;;;15.80;87.50;;;;;;5063447;28;20186;-83
2024/03/21 14:10:27;;;;;;;18.70;9.30;;;15.60;86.70;;;;;;5063868;28;20203;-85
2024/03/21 14:13:15;;;;;;;14.97;8.27;;;15.30;88.00;;;;;;5077683;28;20196;-84
2024/03/21 14:16:01;;;;;;;17.30;8.73;;;15.50;88.20;;;;;;5090396;28;20190;-84
2024/03/21 14:18:47;;;;;;;16.23;9.00;;;15.50;87.40;;;;;;5077231;28;20240;-85